sensor_id;sensor_type;location;lat;lon;timestamp;pressure;altitude;pressure_sealevel;temperature;humidity
15193;BME280;7697;51.630;7.484;2024-03-07T00:03:30;-17300.28;;;6.72;100.00
15193;BME280;7697;51.630;7.484;2024-03-07T00:08:31;-17299.28;;;6.69;100.00
15193;BME280;7697;51.630;7.484;2024-03-07T00:13:34;-17297.44;;;6.64;100.00
15193;BME280;7697;51.630;7.484;2024-03-07T00:18:36;-17296.41;;;6.61;100.00
15193;BME280;7697;51.630;7.484;2024-03-07T00:23:38;-17296.59;;;6.61;100.00
15193;BME280;7697;51.630;7.484;2024-03-07T00:28:41;-17294.91;;;6.56;100.00
15193;BME280;7697;51.630;7.484;2024-03-07T00:33:44;-17294.56;;;6.55;100.00
15193;BME280;7697;51.630;7.484;2024-03-07T00:38:46;-17292.41;;;6.49;100.00
15193;BME280;7697;51.630;7.484;2024-03-07T00:43:49;-17291.88;;;6.47;100.00
15193;BME280;7697;51.630;7.484;2024-03-07T00:48:51;-17292.72;;;6.50;100.00
15193;BME280;7697;51.630;7.484;2024-03-07T00:53:53;-17292.56;;;6.49;100.00
15193;BME280;7697;51.630;7.484;2024-03-07T00:58:56;-17291.22;;;6.45;100.00
15193;BME280;7697;51.630;7.484;2024-03-07T01:03:58;-17291.56;;;6.46;100.00
15193;BME280;7697;51.630;7.484;2024-03-07T01:09:00;-17289.38;;;6.39;100.00
15193;BME280;7697;51.630;7.484;2024-03-07T01:14:03;-17290.06;;;6.42;100.00
15193;BME280;7697;51.630;7.484;2024-03-07T01:19:04;-17289.22;;;6.39;100.00
15193;BME280;7697;51.630;7.484;2024-03-07T01:24:07;-17288.19;;;6.36;100.00
15193;BME280;7697;51.630;7.484;2024-03-07T01:29:10;-17286.03;;;6.29;100.00
15193;BME280;7697;51.630;7.484;2024-03-07T01:34:12;-17285.19;;;6.27;100.00
15193;BME280;7697;51.630;7.484;2024-03-07T01:39:14;-17285.69;;;6.28;100.00
15193;BME280;7697;51.630;7.484;2024-03-07T01:44:17;-17283.84;;;6.23;100.00
15193;BME280;7697;51.630;7.484;2024-03-07T01:49:19;-17284.00;;;6.23;100.00
15193;BME280;7697;51.630;7.484;2024-03-07T01:54:21;-17282.50;;;6.19;100.00
15193;BME280;7697;51.630;7.484;2024-03-07T01:59:24;-17281.34;;;6.15;100.00
15193;BME280;7697;51.630;7.484;2024-03-07T02:04:27;-17279.47;;;6.10;100.00
15193;BME280;7697;51.630;7.484;2024-03-07T02:09:29;-17275.81;;;5.98;100.00
15193;BME280;7697;51.630;7.484;2024-03-07T02:14:32;-17274.47;;;5.94;100.00
15193;BME280;7697;51.630;7.484;2024-03-07T02:19:33;-17272.63;;;5.89;100.00
15193;BME280;7697;51.630;7.484;2024-03-07T02:24:36;-17270.94;;;5.84;100.00
15193;BME280;7697;51.630;7.484;2024-03-07T02:29:38;-17269.75;;;5.80;100.00
15193;BME280;7697;51.630;7.484;2024-03-07T02:34:40;-17267.75;;;5.74;100.00
15193;BME280;7697;51.630;7.484;2024-03-07T02:39:43;-17266.91;;;5.72;100.00
15193;BME280;7697;51.630;7.484;2024-03-07T02:44:45;-17266.75;;;5.71;100.00
15193;BME280;7697;51.630;7.484;2024-03-07T02:49:47;-17266.06;;;5.69;100.00
15193;BME280;7697;51.630;7.484;2024-03-07T02:54:50;-17263.38;;;5.61;100.00
15193;BME280;7697;51.630;7.484;2024-03-07T02:59:52;-17264.06;;;5.63;100.00
15193;BME280;7697;51.630;7.484;2024-03-07T03:04:54;-17261.38;;;5.55;100.00
15193;BME280;7697;51.630;7.484;2024-03-07T03:09:57;-17259.34;;;5.49;100.00
15193;BME280;7697;51.630;7.484;2024-03-07T03:14:59;-17257.19;;;5.42;100.00
15193;BME280;7697;51.630;7.484;2024-03-07T03:20:00;-17254.34;;;5.34;100.00
15193;BME280;7697;51.630;7.484;2024-03-07T03:25:05;-17253.31;;;5.31;100.00
15193;BME280;7697;51.630;7.484;2024-03-07T03:30:08;-17253.50;;;5.31;100.00
15193;BME280;7697;51.630;7.484;2024-03-07T03:35:14;-17252.00;;;5.26;100.00
15193;BME280;7697;51.630;7.484;2024-03-07T03:40:17;-17250.13;;;5.21;100.00
15193;BME280;7697;51.630;7.484;2024-03-07T03:45:20;-17247.13;;;5.12;100.00
15193;BME280;7697;51.630;7.484;2024-03-07T03:50:22;-17242.25;;;4.97;100.00
15193;BME280;7697;51.630;7.484;2024-03-07T03:55:25;-17238.56;;;4.86;100.00
15193;BME280;7697;51.630;7.484;2024-03-07T04:00:27;-17234.72;;;4.74;100.00
15193;BME280;7697;51.630;7.484;2024-03-07T04:05:29;-17231.19;;;4.64;100.00
15193;BME280;7697;51.630;7.484;2024-03-07T04:10:32;-17228.84;;;4.57;100.00
15193;BME280;7697;51.630;7.484;2024-03-07T04:15:34;-17225.34;;;4.46;100.00
15193;BME280;7697;51.630;7.484;2024-03-07T04:20:35;-17222.66;;;4.38;100.00
15193;BME280;7697;51.630;7.484;2024-03-07T04:25:38;-17221.13;;;4.33;100.00
15193;BME280;7697;51.630;7.484;2024-03-07T04:30:41;-17221.81;;;4.35;100.00
15193;BME280;7697;51.630;7.484;2024-03-07T04:35:43;-17221.13;;;4.33;100.00
15193;BME280;7697;51.630;7.484;2024-03-07T04:40:47;-17219.13;;;4.27;100.00
15193;BME280;7697;51.630;7.484;2024-03-07T04:45:49;-17219.47;;;4.28;100.00
15193;BME280;7697;51.630;7.484;2024-03-07T04:50:50;-17218.28;;;4.25;100.00
15193;BME280;7697;51.630;7.484;2024-03-07T04:55:53;-17216.13;;;4.18;100.00
15193;BME280;7697;51.630;7.484;2024-03-07T05:00:56;-17215.78;;;4.17;100.00
15193;BME280;7697;51.630;7.484;2024-03-07T05:05:58;-17214.94;;;4.14;100.00
15193;BME280;7697;51.630;7.484;2024-03-07T05:11:02;-17216.13;;;4.18;100.00
15193;BME280;7697;51.630;7.484;2024-03-07T05:16:05;-17214.44;;;4.13;100.00
15193;BME280;7697;51.630;7.484;2024-03-07T05:21:07;-17213.09;;;4.09;100.00
15193;BME280;7697;51.630;7.484;2024-03-07T05:26:23;-17211.41;;;4.04;100.00
15193;BME280;7697;51.630;7.484;2024-03-07T05:31:26;-17208.91;;;3.96;100.00
15193;BME280;7697;51.630;7.484;2024-03-07T05:36:28;-17207.41;;;3.92;100.00
15193;BME280;7697;51.630;7.484;2024-03-07T05:41:32;-17207.22;;;3.91;100.00
15193;BME280;7697;51.630;7.484;2024-03-07T05:46:35;-17206.06;;;3.88;100.00
15193;BME280;7697;51.630;7.484;2024-03-07T05:51:41;-17206.91;;;3.90;100.00
15193;BME280;7697;51.630;7.484;2024-03-07T05:56:46;-17204.72;;;3.84;100.00
15193;BME280;7697;51.630;7.484;2024-03-07T06:01:49;-17202.88;;;3.78;100.00
15193;BME280;7697;51.630;7.484;2024-03-07T06:06:51;-17201.53;;;3.74;100.00
15193;BME280;7697;51.630;7.484;2024-03-07T06:11:54;-17199.19;;;3.67;100.00
15193;BME280;7697;51.630;7.484;2024-03-07T06:16:56;-17197.34;;;3.61;100.00
15193;BME280;7697;51.630;7.484;2024-03-07T06:21:58;-17195.31;;;3.55;100.00
15193;BME280;7697;51.630;7.484;2024-03-07T06:27:02;-17196.84;;;3.60;100.00
15193;BME280;7697;51.630;7.484;2024-03-07T06:32:09;-17196.50;;;3.59;100.00
15193;BME280;7697;51.630;7.484;2024-03-07T06:37:12;-17197.34;;;3.61;100.00
15193;BME280;7697;51.630;7.484;2024-03-07T06:42:15;-17198.34;;;3.64;100.00
15193;BME280;7697;51.630;7.484;2024-03-07T06:47:16;-17198.84;;;3.66;100.00
15193;BME280;7697;51.630;7.484;2024-03-07T06:52:18;-17199.50;;;3.68;100.00
15193;BME280;7697;51.630;7.484;2024-03-07T06:57:22;-17202.03;;;3.75;100.00
15193;BME280;7697;51.630;7.484;2024-03-07T07:02:24;-17204.38;;;3.83;100.00
15193;BME280;7697;51.630;7.484;2024-03-07T07:07:28;-17207.91;;;3.93;100.00
15193;BME280;7697;51.630;7.484;2024-03-07T07:12:31;-17210.41;;;4.01;100.00
15193;BME280;7697;51.630;7.484;2024-03-07T07:17:32;-17223.31;;;4.40;100.00
15193;BME280;7697;51.630;7.484;2024-03-07T07:22:34;-17216.78;;;4.20;100.00
15193;BME280;7697;51.630;7.484;2024-03-07T07:27:37;-17217.94;;;4.24;100.00
15193;BME280;7697;51.630;7.484;2024-03-07T07:32:39;-17219.47;;;4.28;100.00
15193;BME280;7697;51.630;7.484;2024-03-07T07:37:44;-17220.97;;;4.33;100.00
15193;BME280;7697;51.630;7.484;2024-03-07T07:42:50;-17225.34;;;4.46;100.00
15193;BME280;7697;51.630;7.484;2024-03-07T07:47:52;-17228.34;;;4.55;100.00
15193;BME280;7697;51.630;7.484;2024-03-07T07:52:56;-17230.19;;;4.61;100.00
15193;BME280;7697;51.630;7.484;2024-03-07T07:58:00;-17229.84;;;4.60;100.00
15193;BME280;7697;51.630;7.484;2024-03-07T08:03:05;-17233.88;;;4.72;100.00
15193;BME280;7697;51.630;7.484;2024-03-07T08:08:08;-17233.88;;;4.72;100.00
15193;BME280;7697;51.630;7.484;2024-03-07T08:13:13;-17234.22;;;4.73;100.00
15193;BME280;7697;51.630;7.484;2024-03-07T08:34:42;-17245.63;;;5.07;100.00
15193;BME280;7697;51.630;7.484;2024-03-07T08:39:44;-17247.63;;;5.13;100.00
15193;BME280;7697;51.630;7.484;2024-03-07T08:44:46;-17251.66;;;5.25;100.00
15193;BME280;7697;51.630;7.484;2024-03-07T08:49:49;-17255.16;;;5.36;100.00
15193;BME280;7697;51.630;7.484;2024-03-07T08:54:51;-17258.03;;;5.45;100.00
15193;BME280;7697;51.630;7.484;2024-03-07T08:59:53;-17261.03;;;5.54;99.78
15193;BME280;7697;51.630;7.484;2024-03-07T09:04:56;-17265.72;;;5.68;99.44
15193;BME280;7697;51.630;7.484;2024-03-07T09:09:58;-17268.75;;;5.77;98.78
15193;BME280;7697;51.630;7.484;2024-03-07T09:14:59;-17273.44;;;5.91;98.06
15193;BME280;7697;51.630;7.484;2024-03-07T09:20:03;-17278.16;;;6.06;97.71
15193;BME280;7697;51.630;7.484;2024-03-07T09:25:06;-17282.50;;;6.19;97.94
15193;BME280;7697;51.630;7.484;2024-03-07T09:30:09;-17287.38;;;6.33;97.01
15193;BME280;7697;51.630;7.484;2024-03-07T09:35:13;-17294.56;;;6.55;96.36
15193;BME280;7697;51.630;7.484;2024-03-07T09:40:16;-17299.94;;;6.71;95.66
15193;BME280;7697;51.630;7.484;2024-03-07T09:45:19;-17307.31;;;6.94;95.27
15193;BME280;7697;51.630;7.484;2024-03-07T09:50:23;-17313.69;;;7.13;95.14
15193;BME280;7697;51.630;7.484;2024-03-07T09:55:25;-17315.53;;;7.19;95.25
15193;BME280;7697;51.630;7.484;2024-03-07T10:00:27;-17316.03;;;7.20;94.86
15193;BME280;7697;51.630;7.484;2024-03-07T10:05:31;-17320.06;;;7.32;95.55
15193;BME280;7697;51.630;7.484;2024-03-07T10:10:33;-17326.94;;;7.53;95.69
15193;BME280;7697;51.630;7.484;2024-03-07T10:15:35;-17331.97;;;7.68;94.69
15193;BME280;7697;51.630;7.484;2024-03-07T10:20:39;-17336.84;;;7.83;94.80
15193;BME280;7697;51.630;7.484;2024-03-07T10:25:42;-17341.19;;;7.96;94.82
15193;BME280;7697;51.630;7.484;2024-03-07T10:30:44;-17350.25;;;8.23;93.73
15193;BME280;7697;51.630;7.484;2024-03-07T10:35:48;-17356.28;;;8.42;94.01
15193;BME280;7697;51.630;7.484;2024-03-07T10:40:54;-17360.16;;;8.53;93.27
15193;BME280;7697;51.630;7.484;2024-03-07T10:45:57;-17359.66;;;8.52;92.77
15193;BME280;7697;51.630;7.484;2024-03-07T10:51:07;-17361.16;;;8.56;92.84
15193;BME280;7697;51.630;7.484;2024-03-07T10:56:21;-17365.50;;;8.70;91.82
15193;BME280;7697;51.630;7.484;2024-03-07T11:01:26;-17365.84;;;8.71;92.13
15193;BME280;7697;51.630;7.484;2024-03-07T11:06:32;-17369.72;;;8.82;92.61
15193;BME280;7697;51.630;7.484;2024-03-07T11:11:36;-17373.91;;;8.95;91.70
15193;BME280;7697;51.630;7.484;2024-03-07T11:16:40;-17373.41;;;8.93;91.28
15193;BME280;7697;51.630;7.484;2024-03-07T11:21:44;-17372.56;;;8.91;91.99
15193;BME280;7697;51.630;7.484;2024-03-07T11:26:47;-17373.22;;;8.93;91.37
15193;BME280;7697;51.630;7.484;2024-03-07T11:31:53;-17377.25;;;9.05;91.91
15193;BME280;7697;51.630;7.484;2024-03-07T11:36:56;-17383.47;;;9.24;90.25
15193;BME280;7697;51.630;7.484;2024-03-07T11:42:00;-17383.81;;;9.25;90.14
15193;BME280;7697;51.630;7.484;2024-03-07T11:47:06;-17381.44;;;9.18;89.96
15193;BME280;7697;51.630;7.484;2024-03-07T11:52:11;-17379.78;;;9.13;91.18
15193;BME280;7697;51.630;7.484;2024-03-07T11:57:15;-17381.28;;;9.17;90.67
15193;BME280;7697;51.630;7.484;2024-03-07T12:02:19;-17386.16;;;9.32;89.36
15193;BME280;7697;51.630;7.484;2024-03-07T12:07:24;-17386.16;;;9.32;88.21
15193;BME280;7697;51.630;7.484;2024-03-07T12:12:26;-17385.66;;;9.30;88.46
15193;BME280;7697;51.630;7.484;2024-03-07T12:17:31;-17386.81;;;9.34;88.85
15193;BME280;7697;51.630;7.484;2024-03-07T12:22:35;-17390.50;;;9.45;88.38
15193;BME280;7697;51.630;7.484;2024-03-07T12:27:37;-17409.47;;;10.02;86.10
15193;BME280;7697;51.630;7.484;2024-03-07T12:32:46;-17436.47;;;10.84;82.66
15193;BME280;7697;51.630;7.484;2024-03-07T12:37:50;-17452.25;;;11.32;81.99
15193;BME280;7697;51.630;7.484;2024-03-07T12:42:51;-17456.59;;;11.45;81.75
15193;BME280;7697;51.630;7.484;2024-03-07T12:47:54;-17450.41;;;11.26;80.61
15193;BME280;7697;51.630;7.484;2024-03-07T12:52:58;-17445.19;;;11.10;80.56
15193;BME280;7697;51.630;7.484;2024-03-07T12:57:59;-17451.91;;;11.31;80.21
15193;BME280;7697;51.630;7.484;2024-03-07T13:03:01;-17467.69;;;11.78;76.65
15193;BME280;7697;51.630;7.484;2024-03-07T13:08:05;-17466.16;;;11.74;75.43
15193;BME280;7697;51.630;7.484;2024-03-07T13:13:09;-17473.91;;;11.97;73.79
15193;BME280;7697;51.630;7.484;2024-03-07T13:18:11;-17487.47;;;12.38;72.62
15193;BME280;7697;51.630;7.484;2024-03-07T13:23:15;-17492.69;;;12.54;72.40
15193;BME280;7697;51.630;7.484;2024-03-07T13:28:17;-17492.50;;;12.53;71.50
15193;BME280;7697;51.630;7.484;2024-03-07T13:33:23;-17502.06;;;12.82;72.52
15193;BME280;7697;51.630;7.484;2024-03-07T13:38:26;-17509.47;;;13.04;71.87
15193;BME280;7697;51.630;7.484;2024-03-07T13:43:28;-17497.56;;;12.68;71.72
15193;BME280;7697;51.630;7.484;2024-03-07T13:48:30;-17482.13;;;12.22;74.00
15193;BME280;7697;51.630;7.484;2024-03-07T13:53:35;-17487.97;;;12.39;74.53
15193;BME280;7697;51.630;7.484;2024-03-07T13:59:09;-17498.88;;;12.72;74.74
15193;BME280;7697;51.630;7.484;2024-03-07T14:10:04;-17487.66;;;12.38;72.78
15193;BME280;7697;51.630;7.484;2024-03-07T14:15:56;-17476.41;;;12.05;73.61
15193;BME280;7697;51.630;7.484;2024-03-07T14:21:20;-17483.44;;;12.26;71.90
15193;BME280;7697;51.630;7.484;2024-03-07T14:26:45;-17479.25;;;12.13;71.71
15193;BME280;7697;51.630;7.484;2024-03-07T14:31:51;-17458.63;;;11.51;74.23
15193;BME280;7697;51.630;7.484;2024-03-07T14:37:04;-17451.41;;;11.29;75.07
15193;BME280;7697;51.630;7.484;2024-03-07T14:42:10;-17449.22;;;11.22;76.84
15193;BME280;7697;51.630;7.484;2024-03-07T14:47:19;-17452.91;;;11.34;77.19
15193;BME280;7697;51.630;7.484;2024-03-07T14:52:21;-17447.38;;;11.17;77.43
15193;BME280;7697;51.630;7.484;2024-03-07T14:57:25;-17446.22;;;11.13;77.42
15193;BME280;7697;51.630;7.484;2024-03-07T15:02:27;-17440.00;;;10.95;77.13
15193;BME280;7697;51.630;7.484;2024-03-07T15:07:29;-17441.19;;;10.98;78.19
15193;BME280;7697;51.630;7.484;2024-03-07T15:12:32;-17441.34;;;10.99;78.27
15193;BME280;7697;51.630;7.484;2024-03-07T15:17:34;-17439.50;;;10.93;76.57
15193;BME280;7697;51.630;7.484;2024-03-07T15:22:36;-17438.66;;;10.90;76.56
15193;BME280;7697;51.630;7.484;2024-03-07T15:27:40;-17434.81;;;10.79;76.30
15193;BME280;7697;51.630;7.484;2024-03-07T15:32:42;-17431.78;;;10.70;76.82
15193;BME280;7697;51.630;7.484;2024-03-07T15:37:44;-17433.63;;;10.75;77.73
15193;BME280;7697;51.630;7.484;2024-03-07T15:42:50;-17435.13;;;10.80;78.28
15193;BME280;7697;51.630;7.484;2024-03-07T15:47:53;-17434.28;;;10.77;79.39
15193;BME280;7697;51.630;7.484;2024-03-07T15:52:58;-17435.47;;;10.81;78.90
15193;BME280;7697;51.630;7.484;2024-03-07T15:58:02;-17436.63;;;10.84;79.58
15193;BME280;7697;51.630;7.484;2024-03-07T16:03:07;-17437.47;;;10.87;79.65
15193;BME280;7697;51.630;7.484;2024-03-07T16:08:13;-17434.63;;;10.78;78.82
15193;BME280;7697;51.630;7.484;2024-03-07T16:13:17;-17431.44;;;10.69;77.12
15193;BME280;7697;51.630;7.484;2024-03-07T16:18:19;-17421.22;;;10.38;76.75
15193;BME280;7697;51.630;7.484;2024-03-07T16:23:24;-17421.03;;;10.37;77.31
15193;BME280;7697;51.630;7.484;2024-03-07T16:28:27;-17420.38;;;10.35;77.18
15193;BME280;7697;51.630;7.484;2024-03-07T16:33:29;-17417.53;;;10.27;77.36
15193;BME280;7697;51.630;7.484;2024-03-07T16:38:31;-17411.81;;;10.09;77.47
15193;BME280;7697;51.630;7.484;2024-03-07T16:43:36;-17411.66;;;10.09;78.06
15193;BME280;7697;51.630;7.484;2024-03-07T16:48:39;-17411.66;;;10.09;77.67
15193;BME280;7697;51.630;7.484;2024-03-07T16:53:41;-17409.47;;;10.02;78.01
15193;BME280;7697;51.630;7.484;2024-03-07T16:58:44;-17405.09;;;9.89;78.01
15193;BME280;7697;51.630;7.484;2024-03-07T17:03:46;-17399.91;;;9.73;77.92
15193;BME280;7697;51.630;7.484;2024-03-07T17:08:47;-17396.88;;;9.64;78.54
15193;BME280;7697;51.630;7.484;2024-03-07T17:13:51;-17391.84;;;9.49;77.89
15193;BME280;7697;51.630;7.484;2024-03-07T17:18:53;-17388.16;;;9.38;78.95
15193;BME280;7697;51.630;7.484;2024-03-07T17:23:55;-17384.13;;;9.26;79.16
15193;BME280;7697;51.630;7.484;2024-03-07T17:28:58;-17380.44;;;9.15;79.32
15193;BME280;7697;51.630;7.484;2024-03-07T17:34:01;-17376.75;;;9.03;80.08
15193;BME280;7697;51.630;7.484;2024-03-07T17:39:02;-17372.56;;;8.91;80.20
15193;BME280;7697;51.630;7.484;2024-03-07T17:44:15;-17374.91;;;8.98;81.08
15193;BME280;7697;51.630;7.484;2024-03-07T17:49:17;-17371.88;;;8.89;80.96
15193;BME280;7697;51.630;7.484;2024-03-07T17:54:24;-17368.38;;;8.78;81.66
15193;BME280;7697;51.630;7.484;2024-03-07T17:59:29;-17364.69;;;8.67;82.45
15193;BME280;7697;51.630;7.484;2024-03-07T18:04:31;-17360.66;;;8.55;83.17
15193;BME280;7697;51.630;7.484;2024-03-07T18:09:33;-17356.97;;;8.44;84.11
15193;BME280;7697;51.630;7.484;2024-03-07T18:14:41;-17351.94;;;8.28;84.14
15193;BME280;7697;51.630;7.484;2024-03-07T18:19:48;-17349.59;;;8.21;84.61
15193;BME280;7697;51.630;7.484;2024-03-07T18:24:50;-17346.91;;;8.13;84.60
15193;BME280;7697;51.630;7.484;2024-03-07T18:29:55;-17345.56;;;8.09;84.62
15193;BME280;7697;51.630;7.484;2024-03-07T18:34:59;-17343.03;;;8.02;84.32
15193;BME280;7697;51.630;7.484;2024-03-07T18:40:02;-17340.53;;;7.94;83.95
15193;BME280;7697;51.630;7.484;2024-03-07T18:45:12;-17336.50;;;7.82;84.01
15193;BME280;7697;51.630;7.484;2024-03-07T18:50:20;-17334.16;;;7.75;83.70
15193;BME280;7697;51.630;7.484;2024-03-07T18:55:22;-17332.97;;;7.71;83.29
15193;BME280;7697;51.630;7.484;2024-03-07T19:00:31;-17329.97;;;7.62;82.85
15193;BME280;7697;51.630;7.484;2024-03-07T19:05:39;-17329.78;;;7.62;82.69
15193;BME280;7697;51.630;7.484;2024-03-07T19:10:42;-17326.94;;;7.53;82.67
15193;BME280;7697;51.630;7.484;2024-03-07T19:15:47;-17325.25;;;7.48;83.05
15193;BME280;7697;51.630;7.484;2024-03-07T19:20:50;-17322.41;;;7.39;82.79
15193;BME280;7697;51.630;7.484;2024-03-07T19:25:54;-17321.41;;;7.36;82.56
15193;BME280;7697;51.630;7.484;2024-03-07T19:30:57;-17319.72;;;7.31;82.92
15193;BME280;7697;51.630;7.484;2024-03-07T19:35:59;-17316.22;;;7.21;82.99
15193;BME280;7697;51.630;7.484;2024-03-07T19:41:03;-17315.19;;;7.18;82.46
15193;BME280;7697;51.630;7.484;2024-03-07T19:46:07;-17313.34;;;7.12;82.70
15193;BME280;7697;51.630;7.484;2024-03-07T19:51:08;-17309.50;;;7.00;82.99
15193;BME280;7697;51.630;7.484;2024-03-07T19:56:17;-17308.16;;;6.96;82.57
15193;BME280;7697;51.630;7.484;2024-03-07T20:01:22;-17305.47;;;6.88;82.12
15193;BME280;7697;51.630;7.484;2024-03-07T20:06:25;-17303.28;;;6.82;82.96
15193;BME280;7697;51.630;7.484;2024-03-07T20:11:27;-17301.28;;;6.75;82.10
15193;BME280;7697;51.630;7.484;2024-03-07T20:16:37;-17299.28;;;6.69;82.67
15193;BME280;7697;51.630;7.484;2024-03-07T20:21:39;-17299.28;;;6.69;82.41
15193;BME280;7697;51.630;7.484;2024-03-07T20:26:41;-17296.09;;;6.60;82.97
15193;BME280;7697;51.630;7.484;2024-03-07T20:31:49;-17294.56;;;6.55;82.82
15193;BME280;7697;51.630;7.484;2024-03-07T20:36:51;-17289.88;;;6.41;82.31
15193;BME280;7697;51.630;7.484;2024-03-07T20:41:53;-17289.03;;;6.38;83.16
15193;BME280;7697;51.630;7.484;2024-03-07T20:46:56;-17286.19;;;6.30;82.77
15193;BME280;7697;51.630;7.484;2024-03-07T20:51:59;-17285.53;;;6.28;83.14
15193;BME280;7697;51.630;7.484;2024-03-07T20:57:01;-17283.84;;;6.23;83.70
15193;BME280;7697;51.630;7.484;2024-03-07T21:02:04;-17282.16;;;6.18;83.07
15193;BME280;7697;51.630;7.484;2024-03-07T21:07:06;-17280.66;;;6.13;83.30
15193;BME280;7697;51.630;7.484;2024-03-07T21:12:08;-17279.66;;;6.10;83.00
15193;BME280;7697;51.630;7.484;2024-03-07T21:17:12;-17278.16;;;6.06;83.07
15193;BME280;7697;51.630;7.484;2024-03-07T21:22:14;-17276.13;;;5.99;82.66
15193;BME280;7697;51.630;7.484;2024-03-07T21:27:16;-17271.75;;;5.86;83.02
15193;BME280;7697;51.630;7.484;2024-03-07T21:32:19;-17269.75;;;5.80;83.71
15193;BME280;7697;51.630;7.484;2024-03-07T21:37:21;-17266.75;;;5.71;83.42
15193;BME280;7697;51.630;7.484;2024-03-07T21:42:23;-17265.72;;;5.68;83.56
15193;BME280;7697;51.630;7.484;2024-03-07T21:47:26;-17265.56;;;5.68;83.90
15193;BME280;7697;51.630;7.484;2024-03-07T21:52:28;-17263.72;;;5.62;83.84
15193;BME280;7697;51.630;7.484;2024-03-07T21:57:30;-17260.69;;;5.53;83.52
15193;BME280;7697;51.630;7.484;2024-03-07T22:02:34;-17258.34;;;5.46;84.12
15193;BME280;7697;51.630;7.484;2024-03-07T22:07:36;-17255.50;;;5.37;83.96
15193;BME280;7697;51.630;7.484;2024-03-07T22:12:38;-17253.31;;;5.31;84.48
15193;BME280;7697;51.630;7.484;2024-03-07T22:17:42;-17250.31;;;5.21;84.65
15193;BME280;7697;51.630;7.484;2024-03-07T22:22:44;-17248.13;;;5.15;83.82
15193;BME280;7697;51.630;7.484;2024-03-07T22:27:46;-17247.28;;;5.12;84.48
15193;BME280;7697;51.630;7.484;2024-03-07T22:32:49;-17246.28;;;5.09;84.33
15193;BME280;7697;51.630;7.484;2024-03-07T22:37:51;-17243.28;;;5.00;84.70
15193;BME280;7697;51.630;7.484;2024-03-07T22:42:53;-17242.25;;;4.97;84.48
15193;BME280;7697;51.630;7.484;2024-03-07T22:47:56;-17237.22;;;4.82;84.71
15193;BME280;7697;51.630;7.484;2024-03-07T22:52:58;-17235.88;;;4.78;84.12
15193;BME280;7697;51.630;7.484;2024-03-07T22:58:00;-17234.88;;;4.75;84.00
15193;BME280;7697;51.630;7.484;2024-03-07T23:03:03;-17234.56;;;4.74;83.71
15193;BME280;7697;51.630;7.484;2024-03-07T23:08:06;-17232.38;;;4.67;84.30
15193;BME280;7697;51.630;7.484;2024-03-07T23:13:08;-17230.69;;;4.62;84.07
15193;BME280;7697;51.630;7.484;2024-03-07T23:18:12;-17231.53;;;4.65;83.08
15193;BME280;7697;51.630;7.484;2024-03-07T23:23:14;-17229.19;;;4.58;83.79
15193;BME280;7697;51.630;7.484;2024-03-07T23:28:16;-17229.53;;;4.59;84.01
15193;BME280;7697;51.630;7.484;2024-03-07T23:33:20;-17227.50;;;4.52;83.79
15193;BME280;7697;51.630;7.484;2024-03-07T23:38:22;-17227.50;;;4.52;84.12
15193;BME280;7697;51.630;7.484;2024-03-07T23:43:24;-17225.00;;;4.45;84.86
15193;BME280;7697;51.630;7.484;2024-03-07T23:48:27;-17223.81;;;4.41;84.04
15193;BME280;7697;51.630;7.484;2024-03-07T23:53:29;-17221.47;;;4.34;84.39
15193;BME280;7697;51.630;7.484;2024-03-07T23:58:30;-17217.78;;;4.23;84.36
